This is the latest recevied weather packets stored in our database for station/object OE-11061. If no packets are shown the sender has not sent any weather packets the latest 10 day(s).
| Time | Temp. | Humidity | Pressure | Rain* | Wind** | Luminosity | Snow |
|---|---|---|---|---|---|---|---|
| 1788171095 | 23.89° C | 61% | 1016.3 hPa | 0 mm | - | 553 W/m² | - |
| 1788170722 | 24.44° C | 61% | 1016.4 hPa | 0 mm | - | 754 W/m² | - |
| 1788170122 | 22.78° C | 63% | 1016.8 hPa | 0 mm | - | 254 W/m² | - |
| 1788169295 | 23.33° C | 63% | 1016.7 hPa | 0 mm | - | 470 W/m² | - |
| 1788168922 | 23.33° C | 67% | 1016.7 hPa | 0 mm | - | 433 W/m² | - |
| 1788168322 | 23.33° C | 65% | 1016.7 hPa | 0 mm | - | 351 W/m² | - |
| 1788167494 | 23.89° C | 68% | 1016.6 hPa | 0 mm | - | 597 W/m² | - |
| 1788167122 | 23.33° C | 68% | 1016.7 hPa | 0 mm | - | 635 W/m² | - |
| 1788166522 | 22.22° C | 70% | 1016.9 hPa | 0 mm | - | 553 W/m² | - |
| 1788165695 | 21.11° C | 73% | 1017.1 hPa | 0 mm | - | 224 W/m² | - |
| 1788164722 | 21.67° C | 73% | 1016.8 hPa | 0 mm | - | 441 W/m² | - |
| 1788163895 | 21.11° C | 76% | 1016.9 hPa | 0 mm | - | 306 W/m² | - |
| 1788163522 | 20.56° C | 77% | 1016.8 hPa | 0 mm | - | 261 W/m² | - |
| 1788162922 | 20.56° C | 77% | 1016.8 hPa | 0 mm | - | 232 W/m² | - |
| 1788161722 | 20° C | 80% | 1016.9 hPa | 0 mm | - | 187 W/m² | - |
| 1788161122 | 20° C | 78% | 1016.8 hPa | 0 mm | - | 306 W/m² | - |
| 1788160295 | 19.44° C | 83% | 1016.8 hPa | 0 mm | - | 187 W/m² | - |
| 1788159922 | 18.89° C | 84% | 1017 hPa | 0 mm | - | 164 W/m² | - |
| 1788159322 | 18.89° C | 86% | 1016.9 hPa | 0 mm | - | 157 W/m² | - |
| 1788158495 | 18.33° C | 85% | 1016.9 hPa | 0 mm | - | 90 W/m² | - |
| 1788158122 | 18.33° C | 86% | 1016.9 hPa | 0 mm | - | 90 W/m² | - |
| 1788157522 | 18.33° C | 88% | 1016.9 hPa | 0 mm | - | 90 W/m² | - |
| 1788156694 | 17.78° C | 90% | 1017 hPa | 0 mm | - | 82 W/m² | - |
| 1788156322 | 17.78° C | 88% | 1016.8 hPa | 0 mm | - | 45 W/m² | - |
| 1788155722 | 17.22° C | 89% | 1016.9 hPa | 0 mm | - | 22 W/m² | - |
* Rain latest hour (hover to see other rain measurements)
** Current wind speed in m/s (hover to see current wind gust speed)